sensor_id;sensor_type;location;lat;lon;timestamp;P1;durP1;ratioP1;P2;durP2;ratioP2
73779;SDS011;62093;37.614;15.072;2022-12-20T00:01:18;8.43;;;6.20;;
73779;SDS011;62093;37.614;15.072;2022-12-20T00:03:47;9.93;;;6.38;;
73779;SDS011;62093;37.614;15.072;2022-12-20T00:06:15;9.25;;;6.30;;
73779;SDS011;62093;37.614;15.072;2022-12-20T00:08:41;8.88;;;6.10;;
73779;SDS011;62093;37.614;15.072;2022-12-20T00:11:08;8.90;;;6.55;;
73779;SDS011;62093;37.614;15.072;2022-12-20T00:13:34;10.00;;;6.70;;
73779;SDS011;62093;37.614;15.072;2022-12-20T00:16:05;9.35;;;6.07;;
73779;SDS011;62093;37.614;15.072;2022-12-20T00:18:33;8.98;;;5.97;;
73779;SDS011;62093;37.614;15.072;2022-12-20T00:20:59;8.77;;;6.55;;
73779;SDS011;62093;37.614;15.072;2022-12-20T00:23:27;8.93;;;6.35;;
73779;SDS011;62093;37.614;15.072;2022-12-20T00:26:06;9.00;;;6.30;;
73779;SDS011;62093;37.614;15.072;2022-12-20T00:28:35;8.73;;;6.28;;
73779;SDS011;62093;37.614;15.072;2022-12-20T00:31:02;8.90;;;6.38;;
73779;SDS011;62093;37.614;15.072;2022-12-20T00:33:32;8.60;;;6.10;;
73779;SDS011;62093;37.614;15.072;2022-12-20T00:36:00;9.40;;;6.22;;
73779;SDS011;62093;37.614;15.072;2022-12-20T00:38:26;9.90;;;6.40;;
73779;SDS011;62093;37.614;15.072;2022-12-20T00:41:02;9.77;;;6.55;;
73779;SDS011;62093;37.614;15.072;2022-12-20T00:43:29;9.05;;;6.15;;
73779;SDS011;62093;37.614;15.072;2022-12-20T00:45:56;9.00;;;6.10;;
73779;SDS011;62093;37.614;15.072;2022-12-20T00:48:23;9.45;;;5.72;;
73779;SDS011;62093;37.614;15.072;2022-12-20T00:50:49;9.60;;;6.03;;
73779;SDS011;62093;37.614;15.072;2022-12-20T00:53:15;9.80;;;6.63;;
73779;SDS011;62093;37.614;15.072;2022-12-20T00:55:42;8.80;;;6.15;;
73779;SDS011;62093;37.614;15.072;2022-12-20T00:58:09;9.25;;;6.13;;
73779;SDS011;62093;37.614;15.072;2022-12-20T01:00:36;8.50;;;5.47;;
73779;SDS011;62093;37.614;15.072;2022-12-20T01:03:02;9.10;;;5.63;;
73779;SDS011;62093;37.614;15.072;2022-12-20T01:05:29;7.97;;;5.45;;
73779;SDS011;62093;37.614;15.072;2022-12-20T01:07:55;7.93;;;5.07;;
73779;SDS011;62093;37.614;15.072;2022-12-20T01:10:22;8.35;;;5.68;;
73779;SDS011;62093;37.614;15.072;2022-12-20T01:12:48;7.97;;;5.50;;
73779;SDS011;62093;37.614;15.072;2022-12-20T01:15:14;8.57;;;5.60;;
73779;SDS011;62093;37.614;15.072;2022-12-20T01:17:41;7.72;;;5.40;;
73779;SDS011;62093;37.614;15.072;2022-12-20T01:20:08;8.10;;;5.38;;
73779;SDS011;62093;37.614;15.072;2022-12-20T01:22:34;8.35;;;5.55;;
73779;SDS011;62093;37.614;15.072;2022-12-20T01:25:00;7.60;;;5.78;;
73779;SDS011;62093;37.614;15.072;2022-12-20T01:27:27;8.20;;;5.60;;
73779;SDS011;62093;37.614;15.072;2022-12-20T01:29:53;8.90;;;5.78;;
73779;SDS011;62093;37.614;15.072;2022-12-20T01:32:19;8.60;;;5.72;;
73779;SDS011;62093;37.614;15.072;2022-12-20T01:34:46;7.57;;;5.25;;
73779;SDS011;62093;37.614;15.072;2022-12-20T01:37:12;7.85;;;5.40;;
73779;SDS011;62093;37.614;15.072;2022-12-20T01:39:37;7.57;;;5.20;;
73779;SDS011;62093;37.614;15.072;2022-12-20T01:42:04;7.53;;;5.03;;
73779;SDS011;62093;37.614;15.072;2022-12-20T01:46:56;9.25;;;5.47;;
73779;SDS011;62093;37.614;15.072;2022-12-20T01:49:23;7.37;;;5.20;;
73779;SDS011;62093;37.614;15.072;2022-12-20T01:54:21;6.70;;;4.80;;
73779;SDS011;62093;37.614;15.072;2022-12-20T01:56:58;7.70;;;5.05;;
73779;SDS011;62093;37.614;15.072;2022-12-20T01:59:27;7.38;;;5.03;;
73779;SDS011;62093;37.614;15.072;2022-12-20T02:01:55;7.30;;;5.00;;
73779;SDS011;62093;37.614;15.072;2022-12-20T02:04:24;7.88;;;5.18;;
73779;SDS011;62093;37.614;15.072;2022-12-20T02:06:51;7.70;;;4.82;;
73779;SDS011;62093;37.614;15.072;2022-12-20T02:09:16;7.35;;;4.90;;
73779;SDS011;62093;37.614;15.072;2022-12-20T02:23:22;7.30;;;4.97;;
73779;SDS011;62093;37.614;15.072;2022-12-20T02:31:50;7.80;;;4.88;;
73779;SDS011;62093;37.614;15.072;2022-12-20T02:34:25;7.00;;;4.70;;
73779;SDS011;62093;37.614;15.072;2022-12-20T02:36:52;7.25;;;5.20;;
73779;SDS011;62093;37.614;15.072;2022-12-20T02:39:18;7.70;;;5.07;;
73779;SDS011;62093;37.614;15.072;2022-12-20T02:41:56;7.00;;;4.63;;
73779;SDS011;62093;37.614;15.072;2022-12-20T02:44:26;7.28;;;4.50;;
73779;SDS011;62093;37.614;15.072;2022-12-20T02:47:15;7.60;;;5.00;;
73779;SDS011;62093;37.614;15.072;2022-12-20T02:49:45;7.15;;;4.90;;
73779;SDS011;62093;37.614;15.072;2022-12-20T02:52:14;7.10;;;4.50;;
73779;SDS011;62093;37.614;15.072;2022-12-20T02:54:43;7.53;;;4.40;;
73779;SDS011;62093;37.614;15.072;2022-12-20T02:57:14;7.25;;;4.65;;
73779;SDS011;62093;37.614;15.072;2022-12-20T02:59:43;7.03;;;4.50;;
73779;SDS011;62093;37.614;15.072;2022-12-20T03:02:12;6.75;;;4.60;;
73779;SDS011;62093;37.614;15.072;2022-12-20T03:04:39;7.15;;;4.40;;
73779;SDS011;62093;37.614;15.072;2022-12-20T03:07:09;7.03;;;4.53;;
73779;SDS011;62093;37.614;15.072;2022-12-20T03:09:38;7.07;;;4.85;;
73779;SDS011;62093;37.614;15.072;2022-12-20T03:12:06;6.70;;;4.65;;
73779;SDS011;62093;37.614;15.072;2022-12-20T03:14:35;6.82;;;4.50;;
73779;SDS011;62093;37.614;15.072;2022-12-20T03:17:04;7.45;;;4.70;;
73779;SDS011;62093;37.614;15.072;2022-12-20T03:19:31;6.97;;;4.60;;
73779;SDS011;62093;37.614;15.072;2022-12-20T03:21:57;7.05;;;4.70;;
73779;SDS011;62093;37.614;15.072;2022-12-20T03:24:24;7.22;;;4.68;;
73779;SDS011;62093;37.614;15.072;2022-12-20T03:26:51;6.40;;;4.38;;
73779;SDS011;62093;37.614;15.072;2022-12-20T03:29:20;7.18;;;4.90;;
73779;SDS011;62093;37.614;15.072;2022-12-20T03:31:47;6.70;;;4.20;;
73779;SDS011;62093;37.614;15.072;2022-12-20T03:34:13;6.50;;;4.47;;
73779;SDS011;62093;37.614;15.072;2022-12-20T03:36:40;6.63;;;4.40;;
73779;SDS011;62093;37.614;15.072;2022-12-20T03:39:06;7.25;;;4.70;;
73779;SDS011;62093;37.614;15.072;2022-12-20T03:41:36;5.80;;;4.10;;
73779;SDS011;62093;37.614;15.072;2022-12-20T03:44:06;6.80;;;4.47;;
73779;SDS011;62093;37.614;15.072;2022-12-20T03:46:32;6.47;;;4.30;;
73779;SDS011;62093;37.614;15.072;2022-12-20T03:48:58;6.95;;;4.03;;
73779;SDS011;62093;37.614;15.072;2022-12-20T03:51:24;6.10;;;4.00;;
73779;SDS011;62093;37.614;15.072;2022-12-20T03:53:50;6.55;;;4.38;;
73779;SDS011;62093;37.614;15.072;2022-12-20T03:56:18;7.33;;;4.23;;
73779;SDS011;62093;37.614;15.072;2022-12-20T03:58:44;7.05;;;4.63;;
73779;SDS011;62093;37.614;15.072;2022-12-20T04:01:16;6.50;;;4.10;;
73779;SDS011;62093;37.614;15.072;2022-12-20T04:03:47;6.38;;;4.20;;
73779;SDS011;62093;37.614;15.072;2022-12-20T04:06:13;6.43;;;4.03;;
73779;SDS011;62093;37.614;15.072;2022-12-20T04:08:40;6.57;;;4.20;;
73779;SDS011;62093;37.614;15.072;2022-12-20T04:11:07;6.45;;;3.85;;
73779;SDS011;62093;37.614;15.072;2022-12-20T04:14:05;6.70;;;4.05;;
73779;SDS011;62093;37.614;15.072;2022-12-20T04:16:32;6.07;;;4.00;;
73779;SDS011;62093;37.614;15.072;2022-12-20T04:18:59;6.55;;;3.83;;
73779;SDS011;62093;37.614;15.072;2022-12-20T04:21:31;6.23;;;3.97;;
73779;SDS011;62093;37.614;15.072;2022-12-20T04:23:59;5.72;;;3.47;;
73779;SDS011;62093;37.614;15.072;2022-12-20T04:26:38;6.00;;;3.55;;
73779;SDS011;62093;37.614;15.072;2022-12-20T04:29:04;6.53;;;4.00;;
73779;SDS011;62093;37.614;15.072;2022-12-20T04:31:31;6.07;;;4.35;;
73779;SDS011;62093;37.614;15.072;2022-12-20T04:33:58;6.43;;;3.77;;
73779;SDS011;62093;37.614;15.072;2022-12-20T04:36:25;6.88;;;4.25;;
73779;SDS011;62093;37.614;15.072;2022-12-20T04:38:53;7.68;;;4.05;;
73779;SDS011;62093;37.614;15.072;2022-12-20T04:41:19;6.18;;;3.83;;
73779;SDS011;62093;37.614;15.072;2022-12-20T04:43:55;5.93;;;4.10;;
73779;SDS011;62093;37.614;15.072;2022-12-20T04:46:28;7.10;;;3.80;;
73779;SDS011;62093;37.614;15.072;2022-12-20T04:48:56;6.55;;;4.03;;
73779;SDS011;62093;37.614;15.072;2022-12-20T04:51:22;5.88;;;3.90;;
73779;SDS011;62093;37.614;15.072;2022-12-20T04:53:48;6.57;;;4.20;;
73779;SDS011;62093;37.614;15.072;2022-12-20T04:56:34;5.45;;;3.60;;
73779;SDS011;62093;37.614;15.072;2022-12-20T04:59:07;6.43;;;3.87;;
73779;SDS011;62093;37.614;15.072;2022-12-20T05:01:34;6.13;;;4.03;;
73779;SDS011;62093;37.614;15.072;2022-12-20T05:04:00;5.82;;;3.80;;
73779;SDS011;62093;37.614;15.072;2022-12-20T05:06:31;5.70;;;3.90;;
73779;SDS011;62093;37.614;15.072;2022-12-20T05:08:57;6.00;;;3.78;;
73779;SDS011;62093;37.614;15.072;2022-12-20T05:11:24;6.20;;;3.97;;
73779;SDS011;62093;37.614;15.072;2022-12-20T05:13:50;6.13;;;3.88;;
73779;SDS011;62093;37.614;15.072;2022-12-20T05:16:18;5.88;;;3.47;;
73779;SDS011;62093;37.614;15.072;2022-12-20T05:18:46;6.05;;;3.80;;
73779;SDS011;62093;37.614;15.072;2022-12-20T05:21:13;5.60;;;3.60;;
73779;SDS011;62093;37.614;15.072;2022-12-20T05:23:58;5.90;;;3.47;;
73779;SDS011;62093;37.614;15.072;2022-12-20T05:26:54;5.82;;;3.60;;
73779;SDS011;62093;37.614;15.072;2022-12-20T05:29:20;5.70;;;3.80;;
73779;SDS011;62093;37.614;15.072;2022-12-20T05:31:46;6.03;;;3.65;;
73779;SDS011;62093;37.614;15.072;2022-12-20T05:34:14;5.50;;;3.70;;
73779;SDS011;62093;37.614;15.072;2022-12-20T05:36:43;5.57;;;3.60;;
73779;SDS011;62093;37.614;15.072;2022-12-20T05:39:09;5.40;;;3.35;;
73779;SDS011;62093;37.614;15.072;2022-12-20T05:41:41;5.78;;;3.85;;
73779;SDS011;62093;37.614;15.072;2022-12-20T05:44:07;5.38;;;3.42;;
73779;SDS011;62093;37.614;15.072;2022-12-20T05:46:36;6.10;;;3.80;;
73779;SDS011;62093;37.614;15.072;2022-12-20T05:49:08;6.60;;;3.50;;
73779;SDS011;62093;37.614;15.072;2022-12-20T05:51:34;5.30;;;3.40;;
73779;SDS011;62093;37.614;15.072;2022-12-20T05:54:29;5.70;;;3.67;;
73779;SDS011;62093;37.614;15.072;2022-12-20T05:57:16;6.07;;;3.65;;
73779;SDS011;62093;37.614;15.072;2022-12-20T05:59:42;5.45;;;3.47;;
73779;SDS011;62093;37.614;15.072;2022-12-20T06:02:22;6.30;;;3.77;;
73779;SDS011;62093;37.614;15.072;2022-12-20T06:04:54;6.80;;;3.63;;
73779;SDS011;62093;37.614;15.072;2022-12-20T06:07:22;5.88;;;3.45;;
73779;SDS011;62093;37.614;15.072;2022-12-20T06:09:54;5.55;;;3.55;;
73779;SDS011;62093;37.614;15.072;2022-12-20T06:12:25;6.07;;;3.72;;
73779;SDS011;62093;37.614;15.072;2022-12-20T06:14:52;5.67;;;3.50;;
73779;SDS011;62093;37.614;15.072;2022-12-20T06:17:18;5.70;;;3.80;;
73779;SDS011;62093;37.614;15.072;2022-12-20T06:19:46;5.43;;;3.53;;
73779;SDS011;62093;37.614;15.072;2022-12-20T06:22:15;5.90;;;3.70;;
73779;SDS011;62093;37.614;15.072;2022-12-20T06:24:46;6.70;;;3.30;;
73779;SDS011;62093;37.614;15.072;2022-12-20T06:27:12;5.53;;;3.37;;
73779;SDS011;62093;37.614;15.072;2022-12-20T06:29:39;5.80;;;3.60;;
73779;SDS011;62093;37.614;15.072;2022-12-20T06:32:10;5.25;;;3.25;;
73779;SDS011;62093;37.614;15.072;2022-12-20T06:34:37;5.90;;;3.47;;
73779;SDS011;62093;37.614;15.072;2022-12-20T06:37:04;5.88;;;3.53;;
73779;SDS011;62093;37.614;15.072;2022-12-20T06:39:32;5.90;;;3.80;;
73779;SDS011;62093;37.614;15.072;2022-12-20T06:42:03;6.10;;;3.90;;
73779;SDS011;62093;37.614;15.072;2022-12-20T06:44:30;6.47;;;3.80;;
73779;SDS011;62093;37.614;15.072;2022-12-20T06:46:56;5.70;;;3.50;;
73779;SDS011;62093;37.614;15.072;2022-12-20T06:49:22;6.43;;;3.40;;
73779;SDS011;62093;37.614;15.072;2022-12-20T06:51:49;6.77;;;3.77;;
73779;SDS011;62093;37.614;15.072;2022-12-20T06:54:18;5.40;;;3.40;;
73779;SDS011;62093;37.614;15.072;2022-12-20T06:56:43;5.50;;;3.40;;
73779;SDS011;62093;37.614;15.072;2022-12-20T06:59:11;5.32;;;3.40;;
73779;SDS011;62093;37.614;15.072;2022-12-20T07:01:37;7.43;;;3.77;;
73779;SDS011;62093;37.614;15.072;2022-12-20T07:04:03;6.20;;;3.60;;
73779;SDS011;62093;37.614;15.072;2022-12-20T07:06:29;6.63;;;3.55;;
73779;SDS011;62093;37.614;15.072;2022-12-20T07:08:55;6.38;;;4.05;;
73779;SDS011;62093;37.614;15.072;2022-12-20T07:11:21;6.77;;;3.87;;
73779;SDS011;62093;37.614;15.072;2022-12-20T07:13:48;6.10;;;3.55;;
73779;SDS011;62093;37.614;15.072;2022-12-20T07:16:14;6.60;;;4.13;;
73779;SDS011;62093;37.614;15.072;2022-12-20T07:18:41;7.10;;;4.50;;
73779;SDS011;62093;37.614;15.072;2022-12-20T07:21:06;6.90;;;4.30;;
73779;SDS011;62093;37.614;15.072;2022-12-20T07:23:32;6.57;;;4.30;;
73779;SDS011;62093;37.614;15.072;2022-12-20T07:25:59;6.85;;;4.35;;
73779;SDS011;62093;37.614;15.072;2022-12-20T07:28:26;6.20;;;4.00;;
73779;SDS011;62093;37.614;15.072;2022-12-20T07:30:53;7.43;;;4.10;;
73779;SDS011;62093;37.614;15.072;2022-12-20T07:33:19;7.13;;;3.90;;
73779;SDS011;62093;37.614;15.072;2022-12-20T07:35:45;6.47;;;3.83;;
73779;SDS011;62093;37.614;15.072;2022-12-20T07:38:11;6.60;;;3.63;;
73779;SDS011;62093;37.614;15.072;2022-12-20T07:40:41;5.70;;;3.50;;
73779;SDS011;62093;37.614;15.072;2022-12-20T07:43:08;6.15;;;3.80;;
73779;SDS011;62093;37.614;15.072;2022-12-20T07:45:34;6.17;;;4.00;;
73779;SDS011;62093;37.614;15.072;2022-12-20T07:48:03;5.57;;;3.20;;
73779;SDS011;62093;37.614;15.072;2022-12-20T07:50:30;6.30;;;3.88;;
73779;SDS011;62093;37.614;15.072;2022-12-20T07:52:58;6.80;;;3.70;;
73779;SDS011;62093;37.614;15.072;2022-12-20T07:55:24;5.97;;;3.58;;
73779;SDS011;62093;37.614;15.072;2022-12-20T07:57:55;6.10;;;3.73;;
73779;SDS011;62093;37.614;15.072;2022-12-20T08:00:26;8.40;;;3.80;;
73779;SDS011;62093;37.614;15.072;2022-12-20T08:05:46;6.80;;;3.65;;
73779;SDS011;62093;37.614;15.072;2022-12-20T08:08:16;6.32;;;3.70;;
73779;SDS011;62093;37.614;15.072;2022-12-20T08:10:42;5.83;;;3.37;;
73779;SDS011;62093;37.614;15.072;2022-12-20T08:13:09;5.85;;;3.88;;
73779;SDS011;62093;37.614;15.072;2022-12-20T08:15:35;5.80;;;3.45;;
73779;SDS011;62093;37.614;15.072;2022-12-20T08:18:02;5.80;;;3.30;;
73779;SDS011;62093;37.614;15.072;2022-12-20T08:20:28;5.55;;;3.08;;
73779;SDS011;62093;37.614;15.072;2022-12-20T08:22:54;6.83;;;3.83;;
73779;SDS011;62093;37.614;15.072;2022-12-20T08:25:20;6.15;;;4.00;;
73779;SDS011;62093;37.614;15.072;2022-12-20T08:27:46;5.55;;;3.63;;
73779;SDS011;62093;37.614;15.072;2022-12-20T08:30:12;6.15;;;3.85;;
73779;SDS011;62093;37.614;15.072;2022-12-20T08:32:38;5.70;;;3.35;;
73779;SDS011;62093;37.614;15.072;2022-12-20T08:35:05;6.27;;;3.40;;
73779;SDS011;62093;37.614;15.072;2022-12-20T08:37:31;6.00;;;3.70;;
73779;SDS011;62093;37.614;15.072;2022-12-20T08:39:57;6.53;;;3.55;;
73779;SDS011;62093;37.614;15.072;2022-12-20T08:42:23;6.22;;;3.65;;
73779;SDS011;62093;37.614;15.072;2022-12-20T08:44:49;5.88;;;3.22;;
73779;SDS011;62093;37.614;15.072;2022-12-20T08:47:15;5.50;;;3.20;;
73779;SDS011;62093;37.614;15.072;2022-12-20T08:49:41;6.00;;;3.70;;
73779;SDS011;62093;37.614;15.072;2022-12-20T08:52:07;5.68;;;3.17;;
73779;SDS011;62093;37.614;15.072;2022-12-20T08:54:34;6.03;;;3.33;;
73779;SDS011;62093;37.614;15.072;2022-12-20T08:57:00;5.80;;;3.60;;
73779;SDS011;62093;37.614;15.072;2022-12-20T08:59:26;5.73;;;3.20;;
73779;SDS011;62093;37.614;15.072;2022-12-20T09:01:52;5.65;;;3.20;;
73779;SDS011;62093;37.614;15.072;2022-12-20T09:04:19;6.00;;;3.40;;
73779;SDS011;62093;37.614;15.072;2022-12-20T09:06:46;5.78;;;3.58;;
73779;SDS011;62093;37.614;15.072;2022-12-20T09:09:12;5.60;;;3.53;;
73779;SDS011;62093;37.614;15.072;2022-12-20T09:11:38;7.50;;;3.13;;
73779;SDS011;62093;37.614;15.072;2022-12-20T09:14:04;5.72;;;3.30;;
73779;SDS011;62093;37.614;15.072;2022-12-20T09:16:32;5.70;;;3.13;;
73779;SDS011;62093;37.614;15.072;2022-12-20T09:18:59;6.78;;;3.35;;
73779;SDS011;62093;37.614;15.072;2022-12-20T09:21:26;5.40;;;2.97;;
73779;SDS011;62093;37.614;15.072;2022-12-20T09:23:53;6.43;;;3.57;;
73779;SDS011;62093;37.614;15.072;2022-12-20T09:26:20;5.40;;;3.15;;
73779;SDS011;62093;37.614;15.072;2022-12-20T09:28:47;5.18;;;3.35;;
73779;SDS011;62093;37.614;15.072;2022-12-20T09:31:15;5.47;;;3.15;;
73779;SDS011;62093;37.614;15.072;2022-12-20T09:33:43;5.75;;;3.40;;
73779;SDS011;62093;37.614;15.072;2022-12-20T09:36:10;5.87;;;3.33;;
73779;SDS011;62093;37.614;15.072;2022-12-20T09:38:44;5.80;;;3.20;;
73779;SDS011;62093;37.614;15.072;2022-12-20T09:41:18;5.90;;;3.72;;
73779;SDS011;62093;37.614;15.072;2022-12-20T09:44:43;5.43;;;3.03;;
73779;SDS011;62093;37.614;15.072;2022-12-20T09:49:52;5.33;;;3.23;;
73779;SDS011;62093;37.614;15.072;2022-12-20T09:52:28;5.88;;;3.42;;
73779;SDS011;62093;37.614;15.072;2022-12-20T09:57:51;6.25;;;3.35;;
73779;SDS011;62093;37.614;15.072;2022-12-20T10:00:28;6.38;;;3.55;;
73779;SDS011;62093;37.614;15.072;2022-12-20T10:02:55;5.33;;;3.30;;
73779;SDS011;62093;37.614;15.072;2022-12-20T10:11:13;6.38;;;3.22;;
73779;SDS011;62093;37.614;15.072;2022-12-20T10:16:51;5.13;;;3.03;;
73779;SDS011;62093;37.614;15.072;2022-12-20T10:22:28;6.53;;;3.28;;
73779;SDS011;62093;37.614;15.072;2022-12-20T10:25:11;6.07;;;3.22;;
73779;SDS011;62093;37.614;15.072;2022-12-20T10:27:47;5.43;;;3.10;;
73779;SDS011;62093;37.614;15.072;2022-12-20T10:30:20;6.37;;;2.90;;
73779;SDS011;62093;37.614;15.072;2022-12-20T10:32:48;5.88;;;3.20;;
73779;SDS011;62093;37.614;15.072;2022-12-20T10:37:59;5.18;;;2.85;;
73779;SDS011;62093;37.614;15.072;2022-12-20T10:42:58;5.40;;;3.10;;
73779;SDS011;62093;37.614;15.072;2022-12-20T10:45:27;6.03;;;3.08;;
73779;SDS011;62093;37.614;15.072;2022-12-20T10:48:00;5.65;;;3.30;;
73779;SDS011;62093;37.614;15.072;2022-12-20T10:50:27;5.95;;;3.28;;
73779;SDS011;62093;37.614;15.072;2022-12-20T10:55:35;6.60;;;3.13;;
73779;SDS011;62093;37.614;15.072;2022-12-20T10:58:04;5.85;;;3.40;;
73779;SDS011;62093;37.614;15.072;2022-12-20T11:00:37;7.30;;;3.80;;
73779;SDS011;62093;37.614;15.072;2022-12-20T11:05:54;6.22;;;3.55;;
73779;SDS011;62093;37.614;15.072;2022-12-20T11:08:40;6.10;;;3.47;;
73779;SDS011;62093;37.614;15.072;2022-12-20T11:13:46;5.72;;;3.40;;
73779;SDS011;62093;37.614;15.072;2022-12-20T11:16:28;5.43;;;3.47;;
73779;SDS011;62093;37.614;15.072;2022-12-20T11:19:17;5.85;;;3.00;;
73779;SDS011;62093;37.614;15.072;2022-12-20T11:24:47;6.15;;;3.08;;
73779;SDS011;62093;37.614;15.072;2022-12-20T11:37:48;5.90;;;3.38;;
73779;SDS011;62093;37.614;15.072;2022-12-20T11:40:28;5.88;;;3.30;;
73779;SDS011;62093;37.614;15.072;2022-12-20T11:54:36;5.78;;;3.65;;
73779;SDS011;62093;37.614;15.072;2022-12-20T11:57:12;5.57;;;3.13;;
73779;SDS011;62093;37.614;15.072;2022-12-20T11:59:52;5.72;;;3.13;;
73779;SDS011;62093;37.614;15.072;2022-12-20T12:02:31;5.73;;;3.13;;
73779;SDS011;62093;37.614;15.072;2022-12-20T12:05:04;6.20;;;3.50;;
73779;SDS011;62093;37.614;15.072;2022-12-20T12:07:35;5.65;;;3.30;;
73779;SDS011;62093;37.614;15.072;2022-12-20T12:10:13;6.07;;;3.50;;
73779;SDS011;62093;37.614;15.072;2022-12-20T12:12:49;5.97;;;3.10;;
73779;SDS011;62093;37.614;15.072;2022-12-20T12:15:27;5.20;;;3.03;;
73779;SDS011;62093;37.614;15.072;2022-12-20T12:23:16;5.50;;;3.15;;
73779;SDS011;62093;37.614;15.072;2022-12-20T12:25:48;6.27;;;3.37;;
73779;SDS011;62093;37.614;15.072;2022-12-20T12:28:14;5.63;;;3.10;;
73779;SDS011;62093;37.614;15.072;2022-12-20T12:30:55;5.15;;;3.20;;
73779;SDS011;62093;37.614;15.072;2022-12-20T12:33:27;5.57;;;3.10;;
73779;SDS011;62093;37.614;15.072;2022-12-20T12:36:06;5.45;;;3.25;;
73779;SDS011;62093;37.614;15.072;2022-12-20T12:46:46;5.60;;;3.22;;
73779;SDS011;62093;37.614;15.072;2022-12-20T12:49:19;5.35;;;3.40;;
73779;SDS011;62093;37.614;15.072;2022-12-20T12:51:51;6.20;;;3.40;;
73779;SDS011;62093;37.614;15.072;2022-12-20T12:54:27;6.18;;;3.30;;
73779;SDS011;62093;37.614;15.072;2022-12-20T12:57:00;5.57;;;3.30;;
73779;SDS011;62093;37.614;15.072;2022-12-20T13:04:29;6.63;;;3.33;;
73779;SDS011;62093;37.614;15.072;2022-12-20T13:09:50;5.43;;;3.00;;
73779;SDS011;62093;37.614;15.072;2022-12-20T13:17:59;5.83;;;3.30;;
73779;SDS011;62093;37.614;15.072;2022-12-20T13:20:26;5.00;;;3.00;;
73779;SDS011;62093;37.614;15.072;2022-12-20T13:25:33;5.57;;;3.08;;
73779;SDS011;62093;37.614;15.072;2022-12-20T13:33:23;6.95;;;3.42;;
73779;SDS011;62093;37.614;15.072;2022-12-20T13:41:23;5.20;;;3.30;;
73779;SDS011;62093;37.614;15.072;2022-12-20T13:43:55;5.77;;;3.33;;
73779;SDS011;62093;37.614;15.072;2022-12-20T13:46:46;5.63;;;2.95;;
73779;SDS011;62093;37.614;15.072;2022-12-20T13:51:56;5.90;;;3.40;;
73779;SDS011;62093;37.614;15.072;2022-12-20T13:54:40;5.85;;;3.30;;
73779;SDS011;62093;37.614;15.072;2022-12-20T13:57:16;5.47;;;3.00;;
73779;SDS011;62093;37.614;15.072;2022-12-20T13:59:50;5.78;;;3.60;;
73779;SDS011;62093;37.614;15.072;2022-12-20T14:02:21;6.03;;;2.88;;
73779;SDS011;62093;37.614;15.072;2022-12-20T14:05:02;5.70;;;3.60;;
73779;SDS011;62093;37.614;15.072;2022-12-20T14:08:07;5.25;;;2.70;;
73779;SDS011;62093;37.614;15.072;2022-12-20T14:10:34;4.93;;;3.13;;
73779;SDS011;62093;37.614;15.072;2022-12-20T14:13:01;5.38;;;3.40;;
73779;SDS011;62093;37.614;15.072;2022-12-20T14:15:31;5.50;;;3.10;;
73779;SDS011;62093;37.614;15.072;2022-12-20T14:18:05;5.38;;;3.30;;
73779;SDS011;62093;37.614;15.072;2022-12-20T14:20:46;6.05;;;3.50;;
73779;SDS011;62093;37.614;15.072;2022-12-20T14:26:18;5.32;;;3.00;;
73779;SDS011;62093;37.614;15.072;2022-12-20T14:28:50;5.10;;;2.95;;
73779;SDS011;62093;37.614;15.072;2022-12-20T14:34:02;5.43;;;3.30;;
73779;SDS011;62093;37.614;15.072;2022-12-20T14:36:49;5.47;;;3.17;;
73779;SDS011;62093;37.614;15.072;2022-12-20T14:41:59;6.18;;;3.47;;
73779;SDS011;62093;37.614;15.072;2022-12-20T14:44:27;6.00;;;3.50;;
73779;SDS011;62093;37.614;15.072;2022-12-20T14:46:59;5.05;;;3.00;;
73779;SDS011;62093;37.614;15.072;2022-12-20T14:49:32;5.60;;;3.43;;
73779;SDS011;62093;37.614;15.072;2022-12-20T14:54:47;5.15;;;2.80;;
73779;SDS011;62093;37.614;15.072;2022-12-20T14:57:28;5.55;;;3.20;;
73779;SDS011;62093;37.614;15.072;2022-12-20T15:13:13;5.85;;;3.05;;
73779;SDS011;62093;37.614;15.072;2022-12-20T15:15:40;5.63;;;3.13;;
73779;SDS011;62093;37.614;15.072;2022-12-20T15:18:14;5.53;;;3.17;;
73779;SDS011;62093;37.614;15.072;2022-12-20T15:20:42;5.57;;;3.25;;
73779;SDS011;62093;37.614;15.072;2022-12-20T15:23:16;6.55;;;3.58;;
73779;SDS011;62093;37.614;15.072;2022-12-20T15:25:44;5.47;;;3.17;;
73779;SDS011;62093;37.614;15.072;2022-12-20T15:28:15;5.60;;;3.30;;
73779;SDS011;62093;37.614;15.072;2022-12-20T15:30:44;5.80;;;3.28;;
73779;SDS011;62093;37.614;15.072;2022-12-20T15:33:17;5.15;;;3.40;;
73779;SDS011;62093;37.614;15.072;2022-12-20T15:35:46;6.80;;;3.70;;
73779;SDS011;62093;37.614;15.072;2022-12-20T15:38:12;5.90;;;3.40;;
73779;SDS011;62093;37.614;15.072;2022-12-20T15:40:42;5.97;;;3.47;;
73779;SDS011;62093;37.614;15.072;2022-12-20T15:43:12;6.20;;;3.47;;
73779;SDS011;62093;37.614;15.072;2022-12-20T15:45:44;5.30;;;3.20;;
73779;SDS011;62093;37.614;15.072;2022-12-20T15:48:12;6.47;;;3.25;;
73779;SDS011;62093;37.614;15.072;2022-12-20T15:50:46;6.45;;;3.30;;
73779;SDS011;62093;37.614;15.072;2022-12-20T15:53:19;6.27;;;3.67;;
73779;SDS011;62093;37.614;15.072;2022-12-20T15:55:49;5.63;;;3.55;;
73779;SDS011;62093;37.614;15.072;2022-12-20T15:58:15;5.65;;;3.00;;
73779;SDS011;62093;37.614;15.072;2022-12-20T16:00:41;6.90;;;3.50;;
73779;SDS011;62093;37.614;15.072;2022-12-20T16:03:15;6.03;;;3.40;;
73779;SDS011;62093;37.614;15.072;2022-12-20T16:05:44;5.90;;;3.50;;
73779;SDS011;62093;37.614;15.072;2022-12-20T16:08:10;7.47;;;3.90;;
73779;SDS011;62093;37.614;15.072;2022-12-20T16:10:36;6.72;;;3.97;;
73779;SDS011;62093;37.614;15.072;2022-12-20T16:13:02;6.93;;;3.65;;
73779;SDS011;62093;37.614;15.072;2022-12-20T16:15:29;6.43;;;3.50;;
73779;SDS011;62093;37.614;15.072;2022-12-20T16:17:55;5.75;;;3.70;;
73779;SDS011;62093;37.614;15.072;2022-12-20T16:20:21;6.07;;;3.75;;
73779;SDS011;62093;37.614;15.072;2022-12-20T16:22:47;6.70;;;3.92;;
73779;SDS011;62093;37.614;15.072;2022-12-20T16:25:22;7.10;;;4.10;;
73779;SDS011;62093;37.614;15.072;2022-12-20T16:27:53;8.63;;;4.60;;
73779;SDS011;62093;37.614;15.072;2022-12-20T16:30:19;10.23;;;6.18;;
73779;SDS011;62093;37.614;15.072;2022-12-20T16:32:47;9.73;;;5.88;;
73779;SDS011;62093;37.614;15.072;2022-12-20T16:38:03;7.40;;;4.77;;
73779;SDS011;62093;37.614;15.072;2022-12-20T16:40:30;9.23;;;5.55;;
73779;SDS011;62093;37.614;15.072;2022-12-20T16:42:57;10.18;;;6.75;;
73779;SDS011;62093;37.614;15.072;2022-12-20T16:45:26;9.80;;;6.53;;
73779;SDS011;62093;37.614;15.072;2022-12-20T16:47:53;9.45;;;6.28;;
73779;SDS011;62093;37.614;15.072;2022-12-20T16:50:20;8.63;;;5.77;;
73779;SDS011;62093;37.614;15.072;2022-12-20T16:52:47;8.00;;;5.00;;
73779;SDS011;62093;37.614;15.072;2022-12-20T16:55:26;8.77;;;5.70;;
73779;SDS011;62093;37.614;15.072;2022-12-20T16:57:53;7.43;;;4.50;;
73779;SDS011;62093;37.614;15.072;2022-12-20T17:00:21;9.23;;;5.50;;
73779;SDS011;62093;37.614;15.072;2022-12-20T17:02:50;8.13;;;5.47;;
73779;SDS011;62093;37.614;15.072;2022-12-20T17:05:20;8.95;;;6.35;;
73779;SDS011;62093;37.614;15.072;2022-12-20T17:07:53;10.07;;;6.97;;
73779;SDS011;62093;37.614;15.072;2022-12-20T17:10:19;11.77;;;6.60;;
73779;SDS011;62093;37.614;15.072;2022-12-20T17:12:46;10.25;;;5.38;;
73779;SDS011;62093;37.614;15.072;2022-12-20T17:15:17;8.63;;;6.30;;
73779;SDS011;62093;37.614;15.072;2022-12-20T17:17:51;10.75;;;7.40;;
73779;SDS011;62093;37.614;15.072;2022-12-20T17:20:17;8.43;;;6.65;;